If you wish to contribute or participate in the discussions about articles you are invited to join SKYbrary as a registered user

 Actions

Brisbane Airport

From SKYbrary Wiki

YBBN /
Revision as of 01:45, 23 June 2010 by Timo.Kouwenhoven (talk | contribs) (Created page with '{{Airport |Airport_Name=Brisbane Airport |ICAO_Region=APAC |ICAO_Territory=Y |Location=Brisbane, Queensland |Coordinates=27.3900771° S, 153.1148552° E }} IATA: BNE, ICAO: YBBN …')
(diff) ← Older revision | Latest revision (diff) | Newer revision → (diff)
Airport
ICAO: YBBN
Summary
Name Brisbane Airport
Region Asia and Pacific
Territory Australia AU.gif
Location Brisbane, Queensland
Serving
Coordinates 27° 23' 24.28" S, 153° 6' 53.48" E
Runways
Designator Length Width Surface ROPS
1/19 3560 m11,679.79 ft
45 m147.638 ft
ASP yes/yes
14/32 1700 m5,577.428 ft
30 m98.425 ft
ASP yes/yes


METAR
Observation YBBN 201600Z 00000KT 9999 SCT020 17/16 Q1024
Station Brisbane Airport M. O
Date/Time 20 September 2019 16:00:00
Wind direction
Wind speed 00 kts
Lowest cloud amount scattered clouds
Temperature 17°C
Dew point 16°C
Humidity 93%
QNH 1024 hPa
Weather condition n/a

IATA: BNE, ICAO: YBBN

Serves the city of Brisbane and the surrounding metropolitan area.